sensor_id;sensor_type;location;lat;lon;timestamp;P1;durP1;ratioP1;P2;durP2;ratioP2
49103;SDS011;34915;52.926;11.116;2022-10-16T00:01:11;0.60;;;0.60;;
49103;SDS011;34915;52.926;11.116;2022-10-16T00:03:42;0.50;;;0.50;;
49103;SDS011;34915;52.926;11.116;2022-10-16T00:06:12;0.60;;;0.60;;
49103;SDS011;34915;52.926;11.116;2022-10-16T00:08:38;0.40;;;0.40;;
49103;SDS011;34915;52.926;11.116;2022-10-16T00:11:06;0.60;;;0.60;;
49103;SDS011;34915;52.926;11.116;2022-10-16T00:13:36;0.50;;;0.50;;
49103;SDS011;34915;52.926;11.116;2022-10-16T00:16:03;0.70;;;0.70;;
49103;SDS011;34915;52.926;11.116;2022-10-16T00:18:33;0.80;;;0.70;;
49103;SDS011;34915;52.926;11.116;2022-10-16T00:21:12;0.63;;;0.63;;
49103;SDS011;34915;52.926;11.116;2022-10-16T00:23:39;2.30;;;0.50;;
49103;SDS011;34915;52.926;11.116;2022-10-16T00:26:07;0.50;;;0.50;;
49103;SDS011;34915;52.926;11.116;2022-10-16T00:28:36;1.23;;;0.40;;
49103;SDS011;34915;52.926;11.116;2022-10-16T00:31:02;1.07;;;0.60;;
49103;SDS011;34915;52.926;11.116;2022-10-16T00:33:30;0.50;;;0.50;;
49103;SDS011;34915;52.926;11.116;2022-10-16T00:35:57;0.87;;;0.67;;
49103;SDS011;34915;52.926;11.116;2022-10-16T00:38:24;0.60;;;0.60;;
49103;SDS011;34915;52.926;11.116;2022-10-16T00:40:50;2.00;;;0.50;;
49103;SDS011;34915;52.926;11.116;2022-10-16T00:46:03;0.63;;;0.60;;
49103;SDS011;34915;52.926;11.116;2022-10-16T00:48:33;0.80;;;0.50;;
49103;SDS011;34915;52.926;11.116;2022-10-16T00:50:59;0.40;;;0.40;;
49103;SDS011;34915;52.926;11.116;2022-10-16T00:53:24;0.93;;;0.60;;
49103;SDS011;34915;52.926;11.116;2022-10-16T00:55:51;0.80;;;0.57;;
49103;SDS011;34915;52.926;11.116;2022-10-16T00:58:17;0.50;;;0.50;;
49103;SDS011;34915;52.926;11.116;2022-10-16T01:00:42;0.63;;;0.50;;
49103;SDS011;34915;52.926;11.116;2022-10-16T01:03:28;0.60;;;0.60;;
49103;SDS011;34915;52.926;11.116;2022-10-16T01:09:01;0.70;;;0.70;;
49103;SDS011;34915;52.926;11.116;2022-10-16T01:14:36;1.40;;;0.73;;
49103;SDS011;34915;52.926;11.116;2022-10-16T01:17:23;0.43;;;0.43;;
49103;SDS011;34915;52.926;11.116;2022-10-16T01:20:26;0.67;;;0.67;;
49103;SDS011;34915;52.926;11.116;2022-10-16T01:28:09;0.50;;;0.50;;
49103;SDS011;34915;52.926;11.116;2022-10-16T01:30:38;0.57;;;0.57;;
49103;SDS011;34915;52.926;11.116;2022-10-16T01:33:17;0.60;;;0.60;;
49103;SDS011;34915;52.926;11.116;2022-10-16T01:35:47;0.67;;;0.53;;
49103;SDS011;34915;52.926;11.116;2022-10-16T01:38:25;0.50;;;0.50;;
49103;SDS011;34915;52.926;11.116;2022-10-16T01:40:53;1.57;;;0.70;;
49103;SDS011;34915;52.926;11.116;2022-10-16T01:43:31;0.90;;;0.70;;
49103;SDS011;34915;52.926;11.116;2022-10-16T01:46:15;0.63;;;0.60;;
49103;SDS011;34915;52.926;11.116;2022-10-16T01:48:43;1.03;;;0.70;;
49103;SDS011;34915;52.926;11.116;2022-10-16T01:51:11;0.70;;;0.70;;
49103;SDS011;34915;52.926;11.116;2022-10-16T01:53:40;1.00;;;0.80;;
49103;SDS011;34915;52.926;11.116;2022-10-16T01:56:12;0.80;;;0.80;;
49103;SDS011;34915;52.926;11.116;2022-10-16T01:58:51;0.90;;;0.80;;
49103;SDS011;34915;52.926;11.116;2022-10-16T02:01:21;0.60;;;0.60;;
49103;SDS011;34915;52.926;11.116;2022-10-16T02:03:51;1.10;;;0.83;;
49103;SDS011;34915;52.926;11.116;2022-10-16T02:06:20;0.53;;;0.53;;
49103;SDS011;34915;52.926;11.116;2022-10-16T02:08:46;0.60;;;0.60;;
49103;SDS011;34915;52.926;11.116;2022-10-16T02:11:12;2.07;;;0.60;;
49103;SDS011;34915;52.926;11.116;2022-10-16T02:16:12;0.87;;;0.87;;
49103;SDS011;34915;52.926;11.116;2022-10-16T02:18:42;0.83;;;0.73;;
49103;SDS011;34915;52.926;11.116;2022-10-16T02:21:25;0.70;;;0.70;;
49103;SDS011;34915;52.926;11.116;2022-10-16T02:23:56;0.90;;;0.77;;
49103;SDS011;34915;52.926;11.116;2022-10-16T02:26:30;0.87;;;0.57;;
49103;SDS011;34915;52.926;11.116;2022-10-16T02:29:15;1.47;;;0.70;;
49103;SDS011;34915;52.926;11.116;2022-10-16T02:31:45;0.40;;;0.40;;
49103;SDS011;34915;52.926;11.116;2022-10-16T02:34:16;0.93;;;0.77;;
49103;SDS011;34915;52.926;11.116;2022-10-16T02:36:43;0.53;;;0.53;;
49103;SDS011;34915;52.926;11.116;2022-10-16T02:39:14;0.50;;;0.50;;
49103;SDS011;34915;52.926;11.116;2022-10-16T02:41:40;0.50;;;0.50;;
49103;SDS011;34915;52.926;11.116;2022-10-16T02:44:05;1.00;;;0.80;;
49103;SDS011;34915;52.926;11.116;2022-10-16T02:46:34;0.67;;;0.50;;
49103;SDS011;34915;52.926;11.116;2022-10-16T02:49:00;0.57;;;0.57;;
49103;SDS011;34915;52.926;11.116;2022-10-16T02:51:25;2.67;;;0.50;;
49103;SDS011;34915;52.926;11.116;2022-10-16T02:53:51;0.50;;;0.37;;
49103;SDS011;34915;52.926;11.116;2022-10-16T02:56:16;1.27;;;0.70;;
49103;SDS011;34915;52.926;11.116;2022-10-16T02:58:42;0.90;;;0.53;;
49103;SDS011;34915;52.926;11.116;2022-10-16T03:01:07;1.03;;;1.03;;
49103;SDS011;34915;52.926;11.116;2022-10-16T03:03:36;0.43;;;0.43;;
49103;SDS011;34915;52.926;11.116;2022-10-16T03:06:02;0.50;;;0.50;;
49103;SDS011;34915;52.926;11.116;2022-10-16T03:08:27;0.50;;;0.50;;
49103;SDS011;34915;52.926;11.116;2022-10-16T03:10:54;2.73;;;0.60;;
49103;SDS011;34915;52.926;11.116;2022-10-16T03:13:20;0.60;;;0.50;;
49103;SDS011;34915;52.926;11.116;2022-10-16T03:15:46;2.40;;;0.70;;
49103;SDS011;34915;52.926;11.116;2022-10-16T03:18:12;0.40;;;0.40;;
49103;SDS011;34915;52.926;11.116;2022-10-16T03:20:38;0.77;;;0.67;;
49103;SDS011;34915;52.926;11.116;2022-10-16T03:23:06;0.93;;;0.70;;
49103;SDS011;34915;52.926;11.116;2022-10-16T03:25:36;0.50;;;0.33;;
49103;SDS011;34915;52.926;11.116;2022-10-16T03:28:02;0.60;;;0.57;;
49103;SDS011;34915;52.926;11.116;2022-10-16T03:30:28;0.60;;;0.60;;
49103;SDS011;34915;52.926;11.116;2022-10-16T03:32:57;3.43;;;0.73;;
49103;SDS011;34915;52.926;11.116;2022-10-16T03:35:25;0.67;;;0.57;;
49103;SDS011;34915;52.926;11.116;2022-10-16T03:37:50;0.40;;;0.40;;
49103;SDS011;34915;52.926;11.116;2022-10-16T03:40:16;0.30;;;0.30;;
49103;SDS011;34915;52.926;11.116;2022-10-16T03:42:42;0.57;;;0.50;;
49103;SDS011;34915;52.926;11.116;2022-10-16T03:45:11;0.50;;;0.47;;
49103;SDS011;34915;52.926;11.116;2022-10-16T03:47:39;0.57;;;0.57;;
49103;SDS011;34915;52.926;11.116;2022-10-16T03:50:06;0.53;;;0.50;;
49103;SDS011;34915;52.926;11.116;2022-10-16T03:52:32;2.57;;;0.53;;
49103;SDS011;34915;52.926;11.116;2022-10-16T03:55:01;1.00;;;0.67;;
49103;SDS011;34915;52.926;11.116;2022-10-16T03:57:26;0.87;;;0.67;;
49103;SDS011;34915;52.926;11.116;2022-10-16T03:59:52;2.00;;;0.43;;
49103;SDS011;34915;52.926;11.116;2022-10-16T04:02:17;0.50;;;0.50;;
49103;SDS011;34915;52.926;11.116;2022-10-16T04:04:43;0.33;;;0.33;;
49103;SDS011;34915;52.926;11.116;2022-10-16T04:07:08;0.80;;;0.80;;
49103;SDS011;34915;52.926;11.116;2022-10-16T04:09:37;0.93;;;0.70;;
49103;SDS011;34915;52.926;11.116;2022-10-16T04:12:02;0.83;;;0.67;;
49103;SDS011;34915;52.926;11.116;2022-10-16T04:14:28;0.57;;;0.57;;
49103;SDS011;34915;52.926;11.116;2022-10-16T04:16:57;0.73;;;0.73;;
49103;SDS011;34915;52.926;11.116;2022-10-16T04:19:22;2.00;;;0.60;;
49103;SDS011;34915;52.926;11.116;2022-10-16T04:21:48;1.00;;;0.90;;
49103;SDS011;34915;52.926;11.116;2022-10-16T04:24:13;1.87;;;0.90;;
49103;SDS011;34915;52.926;11.116;2022-10-16T04:26:39;0.73;;;0.73;;
49103;SDS011;34915;52.926;11.116;2022-10-16T04:29:04;0.60;;;0.53;;
49103;SDS011;34915;52.926;11.116;2022-10-16T04:31:31;2.20;;;0.87;;
49103;SDS011;34915;52.926;11.116;2022-10-16T04:33:59;0.70;;;0.70;;
49103;SDS011;34915;52.926;11.116;2022-10-16T04:36:25;0.87;;;0.80;;
49103;SDS011;34915;52.926;11.116;2022-10-16T04:38:51;0.83;;;0.83;;
49103;SDS011;34915;52.926;11.116;2022-10-16T04:41:16;0.80;;;0.80;;
49103;SDS011;34915;52.926;11.116;2022-10-16T04:43:42;0.80;;;0.70;;
49103;SDS011;34915;52.926;11.116;2022-10-16T04:46:08;0.97;;;0.70;;
49103;SDS011;34915;52.926;11.116;2022-10-16T04:48:35;0.80;;;0.80;;
49103;SDS011;34915;52.926;11.116;2022-10-16T04:51:01;0.77;;;0.77;;
49103;SDS011;34915;52.926;11.116;2022-10-16T04:53:30;1.37;;;1.00;;
49103;SDS011;34915;52.926;11.116;2022-10-16T04:55:58;0.50;;;0.50;;
49103;SDS011;34915;52.926;11.116;2022-10-16T04:58:24;1.30;;;0.70;;
49103;SDS011;34915;52.926;11.116;2022-10-16T05:00:53;1.20;;;0.70;;
49103;SDS011;34915;52.926;11.116;2022-10-16T05:03:21;0.90;;;0.80;;
49103;SDS011;34915;52.926;11.116;2022-10-16T05:05:47;1.17;;;1.00;;
49103;SDS011;34915;52.926;11.116;2022-10-16T05:08:13;0.63;;;0.63;;
49103;SDS011;34915;52.926;11.116;2022-10-16T05:10:43;2.53;;;0.97;;
49103;SDS011;34915;52.926;11.116;2022-10-16T05:13:12;1.00;;;0.93;;
49103;SDS011;34915;52.926;11.116;2022-10-16T05:15:38;3.20;;;0.97;;
49103;SDS011;34915;52.926;11.116;2022-10-16T05:18:03;0.73;;;0.73;;
49103;SDS011;34915;52.926;11.116;2022-10-16T05:20:29;1.00;;;0.90;;
49103;SDS011;34915;52.926;11.116;2022-10-16T05:22:55;1.10;;;1.00;;
49103;SDS011;34915;52.926;11.116;2022-10-16T05:25:20;0.80;;;0.63;;
49103;SDS011;34915;52.926;11.116;2022-10-16T05:27:47;1.00;;;0.70;;
49103;SDS011;34915;52.926;11.116;2022-10-16T05:30:14;1.37;;;1.23;;
49103;SDS011;34915;52.926;11.116;2022-10-16T05:32:41;0.80;;;0.80;;
49103;SDS011;34915;52.926;11.116;2022-10-16T05:35:07;0.80;;;0.80;;
49103;SDS011;34915;52.926;11.116;2022-10-16T05:37:32;1.10;;;1.00;;
49103;SDS011;34915;52.926;11.116;2022-10-16T05:39:58;1.37;;;1.13;;
49103;SDS011;34915;52.926;11.116;2022-10-16T05:42:24;2.20;;;0.80;;
49103;SDS011;34915;52.926;11.116;2022-10-16T05:44:49;3.30;;;0.80;;
49103;SDS011;34915;52.926;11.116;2022-10-16T05:47:15;1.60;;;0.80;;
49103;SDS011;34915;52.926;11.116;2022-10-16T05:49:40;3.83;;;1.20;;
49103;SDS011;34915;52.926;11.116;2022-10-16T05:52:06;1.63;;;1.20;;
49103;SDS011;34915;52.926;11.116;2022-10-16T05:54:31;0.83;;;0.83;;
49103;SDS011;34915;52.926;11.116;2022-10-16T05:56:57;1.10;;;1.00;;
49103;SDS011;34915;52.926;11.116;2022-10-16T05:59:26;1.20;;;1.10;;
49103;SDS011;34915;52.926;11.116;2022-10-16T06:01:51;1.13;;;0.97;;
49103;SDS011;34915;52.926;11.116;2022-10-16T06:04:18;7.23;;;1.47;;
49103;SDS011;34915;52.926;11.116;2022-10-16T06:06:47;0.70;;;0.70;;
49103;SDS011;34915;52.926;11.116;2022-10-16T06:09:15;0.87;;;0.63;;
49103;SDS011;34915;52.926;11.116;2022-10-16T06:11:41;1.30;;;1.00;;
49103;SDS011;34915;52.926;11.116;2022-10-16T06:14:10;3.73;;;0.93;;
49103;SDS011;34915;52.926;11.116;2022-10-16T06:16:39;1.10;;;0.83;;
49103;SDS011;34915;52.926;11.116;2022-10-16T06:19:04;0.93;;;0.87;;
49103;SDS011;34915;52.926;11.116;2022-10-16T06:21:34;0.97;;;0.90;;
49103;SDS011;34915;52.926;11.116;2022-10-16T06:24:00;1.97;;;0.80;;
49103;SDS011;34915;52.926;11.116;2022-10-16T06:26:28;1.30;;;1.07;;
49103;SDS011;34915;52.926;11.116;2022-10-16T06:28:58;0.60;;;0.60;;
49103;SDS011;34915;52.926;11.116;2022-10-16T06:31:28;1.50;;;0.90;;
49103;SDS011;34915;52.926;11.116;2022-10-16T06:33:56;1.17;;;1.00;;
49103;SDS011;34915;52.926;11.116;2022-10-16T06:36:25;0.80;;;0.80;;
49103;SDS011;34915;52.926;11.116;2022-10-16T06:38:51;1.20;;;1.07;;
49103;SDS011;34915;52.926;11.116;2022-10-16T06:41:19;3.63;;;1.00;;
49103;SDS011;34915;52.926;11.116;2022-10-16T06:43:46;1.60;;;0.87;;
49103;SDS011;34915;52.926;11.116;2022-10-16T06:46:13;1.13;;;1.03;;
49103;SDS011;34915;52.926;11.116;2022-10-16T06:48:43;1.27;;;1.17;;
49103;SDS011;34915;52.926;11.116;2022-10-16T06:51:13;1.80;;;1.70;;
49103;SDS011;34915;52.926;11.116;2022-10-16T06:53:47;2.37;;;1.60;;
49103;SDS011;34915;52.926;11.116;2022-10-16T06:56:15;1.77;;;1.60;;
49103;SDS011;34915;52.926;11.116;2022-10-16T06:58:41;3.93;;;1.30;;
49103;SDS011;34915;52.926;11.116;2022-10-16T07:01:09;4.77;;;1.27;;
49103;SDS011;34915;52.926;11.116;2022-10-16T07:03:39;2.87;;;1.40;;
49103;SDS011;34915;52.926;11.116;2022-10-16T07:06:10;1.33;;;1.20;;
49103;SDS011;34915;52.926;11.116;2022-10-16T07:08:42;1.80;;;1.40;;
49103;SDS011;34915;52.926;11.116;2022-10-16T07:11:14;1.17;;;1.03;;
49103;SDS011;34915;52.926;11.116;2022-10-16T07:13:42;1.57;;;1.20;;
49103;SDS011;34915;52.926;11.116;2022-10-16T07:16:10;1.30;;;1.20;;
49103;SDS011;34915;52.926;11.116;2022-10-16T07:18:43;2.77;;;1.50;;
49103;SDS011;34915;52.926;11.116;2022-10-16T07:21:15;1.30;;;1.20;;
49103;SDS011;34915;52.926;11.116;2022-10-16T07:23:42;2.20;;;1.30;;
49103;SDS011;34915;52.926;11.116;2022-10-16T07:26:08;1.70;;;1.60;;
49103;SDS011;34915;52.926;11.116;2022-10-16T07:28:38;1.50;;;1.40;;
49103;SDS011;34915;52.926;11.116;2022-10-16T07:31:06;3.50;;;1.30;;
49103;SDS011;34915;52.926;11.116;2022-10-16T07:33:35;1.70;;;1.27;;
49103;SDS011;34915;52.926;11.116;2022-10-16T07:36:02;1.77;;;1.53;;
49103;SDS011;34915;52.926;11.116;2022-10-16T07:38:27;2.17;;;1.37;;
49103;SDS011;34915;52.926;11.116;2022-10-16T07:40:57;4.63;;;1.40;;
49103;SDS011;34915;52.926;11.116;2022-10-16T07:43:24;4.00;;;1.40;;
49103;SDS011;34915;52.926;11.116;2022-10-16T07:45:51;2.73;;;1.10;;
49103;SDS011;34915;52.926;11.116;2022-10-16T07:48:17;4.17;;;1.60;;
49103;SDS011;34915;52.926;11.116;2022-10-16T07:50:43;1.30;;;1.17;;
49103;SDS011;34915;52.926;11.116;2022-10-16T07:53:09;1.50;;;1.40;;
49103;SDS011;34915;52.926;11.116;2022-10-16T07:55:36;1.43;;;1.30;;
49103;SDS011;34915;52.926;11.116;2022-10-16T07:58:08;2.23;;;1.67;;
49103;SDS011;34915;52.926;11.116;2022-10-16T08:00:35;1.60;;;1.37;;
49103;SDS011;34915;52.926;11.116;2022-10-16T08:03:05;1.60;;;1.43;;
49103;SDS011;34915;52.926;11.116;2022-10-16T08:05:33;1.50;;;1.20;;
49103;SDS011;34915;52.926;11.116;2022-10-16T08:08:02;2.80;;;1.40;;
49103;SDS011;34915;52.926;11.116;2022-10-16T08:10:28;1.73;;;1.33;;
49103;SDS011;34915;52.926;11.116;2022-10-16T08:12:54;1.10;;;0.90;;
49103;SDS011;34915;52.926;11.116;2022-10-16T08:15:20;2.83;;;0.87;;
49103;SDS011;34915;52.926;11.116;2022-10-16T08:17:56;1.40;;;1.30;;
49103;SDS011;34915;52.926;11.116;2022-10-16T08:20:29;1.80;;;1.57;;
49103;SDS011;34915;52.926;11.116;2022-10-16T08:22:56;2.20;;;1.00;;
49103;SDS011;34915;52.926;11.116;2022-10-16T08:25:25;0.77;;;0.77;;
49103;SDS011;34915;52.926;11.116;2022-10-16T08:27:51;2.10;;;1.07;;
49103;SDS011;34915;52.926;11.116;2022-10-16T08:30:21;0.80;;;0.67;;
49103;SDS011;34915;52.926;11.116;2022-10-16T08:32:48;0.70;;;0.70;;
49103;SDS011;34915;52.926;11.116;2022-10-16T08:35:16;0.60;;;0.60;;
49103;SDS011;34915;52.926;11.116;2022-10-16T08:37:42;0.90;;;0.90;;
49103;SDS011;34915;52.926;11.116;2022-10-16T08:40:18;0.83;;;0.80;;
49103;SDS011;34915;52.926;11.116;2022-10-16T08:48:41;1.07;;;0.60;;
49103;SDS011;34915;52.926;11.116;2022-10-16T08:51:11;0.63;;;0.50;;
49103;SDS011;34915;52.926;11.116;2022-10-16T08:54:03;0.60;;;0.60;;
49103;SDS011;34915;52.926;11.116;2022-10-16T08:56:29;0.40;;;0.40;;
49103;SDS011;34915;52.926;11.116;2022-10-16T08:58:58;2.57;;;0.60;;
49103;SDS011;34915;52.926;11.116;2022-10-16T09:01:25;0.60;;;0.60;;
49103;SDS011;34915;52.926;11.116;2022-10-16T09:04:07;0.50;;;0.50;;
49103;SDS011;34915;52.926;11.116;2022-10-16T09:06:56;0.83;;;0.60;;
49103;SDS011;34915;52.926;11.116;2022-10-16T09:12:27;0.40;;;0.40;;
49103;SDS011;34915;52.926;11.116;2022-10-16T09:17:37;0.57;;;0.40;;
49103;SDS011;34915;52.926;11.116;2022-10-16T09:25:42;0.30;;;0.30;;
49103;SDS011;34915;52.926;11.116;2022-10-16T09:28:11;0.67;;;0.50;;
49103;SDS011;34915;52.926;11.116;2022-10-16T09:30:42;0.40;;;0.40;;
49103;SDS011;34915;52.926;11.116;2022-10-16T09:33:11;1.03;;;0.43;;
49103;SDS011;34915;52.926;11.116;2022-10-16T09:35:44;0.30;;;0.30;;
49103;SDS011;34915;52.926;11.116;2022-10-16T09:38:21;0.30;;;0.30;;
49103;SDS011;34915;52.926;11.116;2022-10-16T09:40:52;0.40;;;0.40;;
49103;SDS011;34915;52.926;11.116;2022-10-16T09:48:26;0.20;;;0.20;;
49103;SDS011;34915;52.926;11.116;2022-10-16T09:51:05;0.40;;;0.40;;
49103;SDS011;34915;52.926;11.116;2022-10-16T09:53:45;0.30;;;0.30;;
49103;SDS011;34915;52.926;11.116;2022-10-16T09:56:20;0.40;;;0.40;;
49103;SDS011;34915;52.926;11.116;2022-10-16T09:58:51;0.20;;;0.20;;
49103;SDS011;34915;52.926;11.116;2022-10-16T10:01:19;0.30;;;0.20;;
49103;SDS011;34915;52.926;11.116;2022-10-16T10:03:46;0.40;;;0.40;;
49103;SDS011;34915;52.926;11.116;2022-10-16T10:09:32;0.20;;;0.20;;
49103;SDS011;34915;52.926;11.116;2022-10-16T10:11:55;2.27;;;0.30;;
49103;SDS011;34915;52.926;11.116;2022-10-16T10:19:38;0.20;;;0.20;;
49103;SDS011;34915;52.926;11.116;2022-10-16T10:25:34;0.20;;;0.20;;
49103;SDS011;34915;52.926;11.116;2022-10-16T10:39:21;0.10;;;0.10;;
49103;SDS011;34915;52.926;11.116;2022-10-16T10:50:22;0.23;;;0.23;;
49103;SDS011;34915;52.926;11.116;2022-10-16T10:52:54;1.00;;;0.13;;
49103;SDS011;34915;52.926;11.116;2022-10-16T11:11:34;2.47;;;0.57;;
49103;SDS011;34915;52.926;11.116;2022-10-16T11:14:26;0.23;;;0.23;;
49103;SDS011;34915;52.926;11.116;2022-10-16T11:17:04;0.10;;;0.10;;
49103;SDS011;34915;52.926;11.116;2022-10-16T11:22:38;0.40;;;0.27;;
49103;SDS011;34915;52.926;11.116;2022-10-16T11:28:02;0.40;;;0.33;;
49103;SDS011;34915;52.926;11.116;2022-10-16T11:30:51;0.30;;;0.30;;
49103;SDS011;34915;52.926;11.116;2022-10-16T11:33:45;1.10;;;0.30;;
49103;SDS011;34915;52.926;11.116;2022-10-16T11:39:31;1.27;;;0.30;;
49103;SDS011;34915;52.926;11.116;2022-10-16T11:47:43;0.20;;;0.20;;
49103;SDS011;34915;52.926;11.116;2022-10-16T11:52:52;0.10;;;0.10;;
49103;SDS011;34915;52.926;11.116;2022-10-16T11:55:25;0.20;;;0.20;;
49103;SDS011;34915;52.926;11.116;2022-10-16T11:57:58;0.13;;;0.13;;
49103;SDS011;34915;52.926;11.116;2022-10-16T12:03:32;0.20;;;0.20;;
49103;SDS011;34915;52.926;11.116;2022-10-16T12:08:52;0.23;;;0.20;;
49103;SDS011;34915;52.926;11.116;2022-10-16T12:16:59;2.13;;;0.23;;
49103;SDS011;34915;52.926;11.116;2022-10-16T12:19:45;1.07;;;0.40;;
49103;SDS011;34915;52.926;11.116;2022-10-16T12:22:26;0.57;;;0.20;;
49103;SDS011;34915;52.926;11.116;2022-10-16T12:24:58;0.57;;;0.30;;
49103;SDS011;34915;52.926;11.116;2022-10-16T12:27:26;0.17;;;0.17;;
49103;SDS011;34915;52.926;11.116;2022-10-16T12:29:56;0.37;;;0.27;;
49103;SDS011;34915;52.926;11.116;2022-10-16T12:32:36;0.10;;;0.10;;
49103;SDS011;34915;52.926;11.116;2022-10-16T12:35:24;0.93;;;0.37;;
49103;SDS011;34915;52.926;11.116;2022-10-16T12:37:52;0.10;;;0.10;;
49103;SDS011;34915;52.926;11.116;2022-10-16T12:40:29;0.70;;;0.20;;
49103;SDS011;34915;52.926;11.116;2022-10-16T12:44:02;0.23;;;0.20;;
49103;SDS011;34915;52.926;11.116;2022-10-16T12:48:37;0.20;;;0.20;;
49103;SDS011;34915;52.926;11.116;2022-10-16T12:54:00;0.27;;;0.20;;
49103;SDS011;34915;52.926;11.116;2022-10-16T12:57:01;0.37;;;0.20;;
49103;SDS011;34915;52.926;11.116;2022-10-16T13:11:23;0.63;;;0.20;;
49103;SDS011;34915;52.926;11.116;2022-10-16T13:19:30;1.37;;;0.40;;
49103;SDS011;34915;52.926;11.116;2022-10-16T13:28:10;0.93;;;0.10;;
49103;SDS011;34915;52.926;11.116;2022-10-16T13:30:41;0.20;;;0.20;;
49103;SDS011;34915;52.926;11.116;2022-10-16T13:33:20;0.20;;;0.20;;
49103;SDS011;34915;52.926;11.116;2022-10-16T13:35:58;0.80;;;0.33;;
49103;SDS011;34915;52.926;11.116;2022-10-16T13:38:27;0.50;;;0.50;;
49103;SDS011;34915;52.926;11.116;2022-10-16T13:41:13;0.40;;;0.40;;
49103;SDS011;34915;52.926;11.116;2022-10-16T13:43:47;1.03;;;0.90;;
49103;SDS011;34915;52.926;11.116;2022-10-16T13:46:20;1.17;;;0.80;;
49103;SDS011;34915;52.926;11.116;2022-10-16T13:49:11;2.20;;;0.80;;
49103;SDS011;34915;52.926;11.116;2022-10-16T13:51:38;2.77;;;0.40;;
49103;SDS011;34915;52.926;11.116;2022-10-16T13:54:09;0.67;;;0.20;;
49103;SDS011;34915;52.926;11.116;2022-10-16T13:56:39;0.40;;;0.40;;
49103;SDS011;34915;52.926;11.116;2022-10-16T13:59:42;0.40;;;0.40;;
49103;SDS011;34915;52.926;11.116;2022-10-16T14:02:26;2.17;;;1.07;;
49103;SDS011;34915;52.926;11.116;2022-10-16T14:04:55;2.43;;;1.60;;
49103;SDS011;34915;52.926;11.116;2022-10-16T14:07:27;0.90;;;0.90;;
49103;SDS011;34915;52.926;11.116;2022-10-16T14:09:56;1.70;;;1.17;;
49103;SDS011;34915;52.926;11.116;2022-10-16T14:12:31;0.80;;;0.80;;
49103;SDS011;34915;52.926;11.116;2022-10-16T14:15:01;1.63;;;1.20;;
49103;SDS011;34915;52.926;11.116;2022-10-16T14:17:33;2.27;;;1.07;;
49103;SDS011;34915;52.926;11.116;2022-10-16T14:20:04;1.60;;;1.40;;
49103;SDS011;34915;52.926;11.116;2022-10-16T14:22:40;3.43;;;2.10;;
49103;SDS011;34915;52.926;11.116;2022-10-16T14:27:44;2.40;;;1.90;;
49103;SDS011;34915;52.926;11.116;2022-10-16T14:30:15;4.17;;;2.43;;
49103;SDS011;34915;52.926;11.116;2022-10-16T14:32:42;0.27;;;0.27;;
49103;SDS011;34915;52.926;11.116;2022-10-16T14:35:37;1.33;;;0.93;;
49103;SDS011;34915;52.926;11.116;2022-10-16T14:38:05;2.10;;;0.60;;
49103;SDS011;34915;52.926;11.116;2022-10-16T14:40:45;0.30;;;0.30;;
49103;SDS011;34915;52.926;11.116;2022-10-16T14:43:31;1.47;;;0.30;;
49103;SDS011;34915;52.926;11.116;2022-10-16T14:45:57;2.83;;;2.53;;
49103;SDS011;34915;52.926;11.116;2022-10-16T14:48:26;0.70;;;0.50;;
49103;SDS011;34915;52.926;11.116;2022-10-16T14:50:55;0.33;;;0.33;;
49103;SDS011;34915;52.926;11.116;2022-10-16T14:53:21;0.57;;;0.20;;
49103;SDS011;34915;52.926;11.116;2022-10-16T14:55:47;0.30;;;0.30;;
49103;SDS011;34915;52.926;11.116;2022-10-16T14:58:22;0.20;;;0.20;;
49103;SDS011;34915;52.926;11.116;2022-10-16T15:00:55;0.33;;;0.20;;
49103;SDS011;34915;52.926;11.116;2022-10-16T15:03:24;0.20;;;0.20;;
49103;SDS011;34915;52.926;11.116;2022-10-16T15:05:52;0.23;;;0.23;;
49103;SDS011;34915;52.926;11.116;2022-10-16T15:08:21;0.30;;;0.13;;
49103;SDS011;34915;52.926;11.116;2022-10-16T15:10:47;0.50;;;0.20;;
49103;SDS011;34915;52.926;11.116;2022-10-16T15:13:13;0.63;;;0.20;;
49103;SDS011;34915;52.926;11.116;2022-10-16T15:18:15;1.40;;;1.30;;
49103;SDS011;34915;52.926;11.116;2022-10-16T15:20:48;0.60;;;0.60;;
49103;SDS011;34915;52.926;11.116;2022-10-16T15:23:16;1.27;;;1.00;;
49103;SDS011;34915;52.926;11.116;2022-10-16T15:25:44;0.50;;;0.50;;
49103;SDS011;34915;52.926;11.116;2022-10-16T15:28:12;0.60;;;0.37;;
49103;SDS011;34915;52.926;11.116;2022-10-16T15:30:42;0.20;;;0.20;;
49103;SDS011;34915;52.926;11.116;2022-10-16T15:33:14;0.83;;;0.40;;
49103;SDS011;34915;52.926;11.116;2022-10-16T15:35:48;0.40;;;0.37;;
49103;SDS011;34915;52.926;11.116;2022-10-16T15:38:16;0.30;;;0.30;;
49103;SDS011;34915;52.926;11.116;2022-10-16T15:40:43;0.30;;;0.20;;
49103;SDS011;34915;52.926;11.116;2022-10-16T15:43:11;0.77;;;0.30;;
49103;SDS011;34915;52.926;11.116;2022-10-16T15:45:37;0.20;;;0.20;;
49103;SDS011;34915;52.926;11.116;2022-10-16T15:48:05;0.17;;;0.17;;
49103;SDS011;34915;52.926;11.116;2022-10-16T15:50:31;0.87;;;0.87;;
49103;SDS011;34915;52.926;11.116;2022-10-16T15:52:57;0.40;;;0.40;;
49103;SDS011;34915;52.926;11.116;2022-10-16T15:55:28;0.50;;;0.40;;
49103;SDS011;34915;52.926;11.116;2022-10-16T15:57:53;0.20;;;0.20;;
49103;SDS011;34915;52.926;11.116;2022-10-16T16:00:22;0.57;;;0.20;;
49103;SDS011;34915;52.926;11.116;2022-10-16T16:02:53;0.10;;;0.10;;
49103;SDS011;34915;52.926;11.116;2022-10-16T16:05:22;1.50;;;0.50;;
49103;SDS011;34915;52.926;11.116;2022-10-16T16:07:51;0.20;;;0.20;;
49103;SDS011;34915;52.926;11.116;2022-10-16T16:10:21;0.50;;;0.30;;
49103;SDS011;34915;52.926;11.116;2022-10-16T16:12:49;1.07;;;0.30;;
49103;SDS011;34915;52.926;11.116;2022-10-16T16:15:21;0.37;;;0.37;;
49103;SDS011;34915;52.926;11.116;2022-10-16T16:17:47;0.83;;;0.83;;
49103;SDS011;34915;52.926;11.116;2022-10-16T16:20:14;2.43;;;2.00;;
49103;SDS011;34915;52.926;11.116;2022-10-16T16:22:40;1.10;;;0.90;;
49103;SDS011;34915;52.926;11.116;2022-10-16T16:25:08;3.33;;;2.60;;
49103;SDS011;34915;52.926;11.116;2022-10-16T16:27:37;1.53;;;1.30;;
49103;SDS011;34915;52.926;11.116;2022-10-16T16:30:04;0.73;;;0.60;;
49103;SDS011;34915;52.926;11.116;2022-10-16T16:32:35;0.90;;;0.90;;
49103;SDS011;34915;52.926;11.116;2022-10-16T16:35:03;1.17;;;1.07;;
49103;SDS011;34915;52.926;11.116;2022-10-16T16:37:33;1.03;;;0.83;;
49103;SDS011;34915;52.926;11.116;2022-10-16T16:40:02;0.70;;;0.47;;
49103;SDS011;34915;52.926;11.116;2022-10-16T16:42:28;1.30;;;0.40;;
49103;SDS011;34915;52.926;11.116;2022-10-16T16:44:53;0.20;;;0.20;;
49103;SDS011;34915;52.926;11.116;2022-10-16T16:47:21;0.40;;;0.40;;
49103;SDS011;34915;52.926;11.116;2022-10-16T16:49:47;0.77;;;0.60;;
49103;SDS011;34915;52.926;11.116;2022-10-16T16:52:13;0.40;;;0.40;;
49103;SDS011;34915;52.926;11.116;2022-10-16T16:54:42;0.33;;;0.33;;
49103;SDS011;34915;52.926;11.116;2022-10-16T16:57:13;1.50;;;0.60;;
49103;SDS011;34915;52.926;11.116;2022-10-16T16:59:41;0.50;;;0.50;;
49103;SDS011;34915;52.926;11.116;2022-10-16T17:02:10;1.47;;;0.43;;
49103;SDS011;34915;52.926;11.116;2022-10-16T17:04:36;0.50;;;0.50;;
49103;SDS011;34915;52.926;11.116;2022-10-16T17:07:01;0.57;;;0.57;;
49103;SDS011;34915;52.926;11.116;2022-10-16T17:09:31;1.20;;;0.87;;
49103;SDS011;34915;52.926;11.116;2022-10-16T17:11:58;1.43;;;0.77;;
49103;SDS011;34915;52.926;11.116;2022-10-16T17:14:26;1.07;;;0.97;;
49103;SDS011;34915;52.926;11.116;2022-10-16T17:16:52;1.37;;;1.13;;
49103;SDS011;34915;52.926;11.116;2022-10-16T17:19:21;2.93;;;2.03;;